createdAt,value
2018-09-27T00:00:18.464Z,19.17
2018-09-27T00:04:22.793Z,21.73
2018-09-27T00:08:26.983Z,19.93
2018-09-27T00:12:31.298Z,20.20
2018-09-27T00:16:35.391Z,23.17
2018-09-27T00:20:39.676Z,19.47
2018-09-27T00:24:44.349Z,26.90
2018-09-27T00:28:48.629Z,20.33
2018-09-27T00:32:53.186Z,22.37
2018-09-27T00:36:57.244Z,25.50
2018-09-27T00:41:01.628Z,18.17
2018-09-27T00:45:06.111Z,21.40
2018-09-27T00:49:10.767Z,20.37
2018-09-27T00:53:16.353Z,18.10
2018-09-27T00:57:20.469Z,17.03
2018-09-27T01:01:24.563Z,17.43
2018-09-27T01:05:28.722Z,22.70
2018-09-27T01:09:33.179Z,20.03
2018-09-27T01:13:37.826Z,17.57
2018-09-27T01:17:42.735Z,20.03
2018-09-27T01:21:47.562Z,16.77
2018-09-27T01:25:51.659Z,14.53
2018-09-27T01:29:55.785Z,15.57
2018-09-27T01:33:59.875Z,16.90
2018-09-27T01:38:04.114Z,13.93
2018-09-27T01:42:08.570Z,13.13
2018-09-27T01:46:13.738Z,12.33
2018-09-27T01:50:18.111Z,13.93
2018-09-27T01:54:22.538Z,11.50
2018-09-27T01:58:26.618Z,15.90
2018-09-27T02:02:30.852Z,10.20
2018-09-27T02:06:35.283Z,10.70
2018-09-27T02:10:40.184Z,13.63
2018-09-27T02:14:44.830Z,11.80
2018-09-27T02:18:49.305Z,12.37
2018-09-27T02:22:53.385Z,15.67
2018-09-27T02:26:57.439Z,16.47
2018-09-27T02:31:01.642Z,16.67
2018-09-27T02:35:05.760Z,17.70
2018-09-27T02:39:10.961Z,15.27
2018-09-27T02:43:15.560Z,18.50
2018-09-27T02:47:19.740Z,21.93
2018-09-27T02:51:24.052Z,15.70
2018-09-27T02:55:28.173Z,17.23
2018-09-27T02:59:32.296Z,21.73
2018-09-27T03:03:36.941Z,19.93
2018-09-27T03:07:42.017Z,22.83
2018-09-27T03:11:47.341Z,19.47
2018-09-27T03:15:52.083Z,17.83
2018-09-27T03:19:56.205Z,17.80
2018-09-27T03:24:00.416Z,20.10
2018-09-27T03:28:04.747Z,19.67
2018-09-27T03:32:08.807Z,18.97
2018-09-27T03:36:13.779Z,20.30
2018-09-27T03:40:18.568Z,19.33
2018-09-27T03:44:22.999Z,18.47
2018-09-27T03:48:27.064Z,18.97
2018-09-27T03:52:31.104Z,24.03
2018-09-27T03:56:35.198Z,18.87
2018-09-27T04:00:39.338Z,19.33
2018-09-27T04:04:43.597Z,18.93
2018-09-27T04:08:47.934Z,18.47
2018-09-27T04:12:52.204Z,14.73
2018-09-27T04:16:56.333Z,15.23
2018-09-27T04:21:00.410Z,15.83
2018-09-27T04:25:05.057Z,14.37
2018-09-27T04:29:09.391Z,11.50
2018-09-27T04:33:13.519Z,17.60
2018-09-27T04:37:17.646Z,16.37
2018-09-27T04:41:21.731Z,16.60
2018-09-27T04:45:25.800Z,13.80
2018-09-27T04:49:29.851Z,16.43
2018-09-27T04:53:33.915Z,13.40
2018-09-27T04:57:37.970Z,12.33
2018-09-27T05:01:42.082Z,14.80
2018-09-27T05:05:46.288Z,16.37
2018-09-27T05:09:50.359Z,13.10
2018-09-27T05:13:54.427Z,16.90
2018-09-27T05:17:58.472Z,14.40
2018-09-27T05:22:02.759Z,14.50
2018-09-27T05:26:06.814Z,13.93
2018-09-27T05:30:11.029Z,16.57
2018-09-27T05:34:16.215Z,15.63
2018-09-27T05:38:20.297Z,17.17
2018-09-27T05:42:24.452Z,15.63
2018-09-27T05:46:28.642Z,15.73
2018-09-27T05:50:32.674Z,15.63
2018-09-27T05:54:36.763Z,16.53
2018-09-27T05:58:41.681Z,15.83
2018-09-27T06:02:46.101Z,18.10
2018-09-27T06:06:50.470Z,16.40
2018-09-27T06:10:54.728Z,16.10
2018-09-27T06:14:58.884Z,20.37
2018-09-27T06:19:03.166Z,21.20
2018-09-27T06:23:07.480Z,21.13
2018-09-27T06:27:12.493Z,17.80
2018-09-27T06:31:17.116Z,17.47
2018-09-27T06:35:21.328Z,14.97
2018-09-27T06:39:25.408Z,20.67
2018-09-27T06:43:29.456Z,21.23
2018-09-27T06:47:33.796Z,25.33
2018-09-27T06:51:37.846Z,20.80
2018-09-27T06:55:42.207Z,18.60
2018-09-27T06:59:46.281Z,18.87
2018-09-27T07:03:50.329Z,17.80
2018-09-27T07:07:54.385Z,18.53
2018-09-27T07:11:58.479Z,19.50
2018-09-27T07:16:02.496Z,18.50
2018-09-27T07:20:06.645Z,21.27
2018-09-27T07:24:10.706Z,22.77
2018-09-27T07:28:15.072Z,17.93
2018-09-27T07:32:19.150Z,14.87
2018-09-27T07:36:23.199Z,13.80
2018-09-27T07:40:27.281Z,14.93
2018-09-27T07:44:31.415Z,14.93
2018-09-27T07:48:35.425Z,15.17
2018-09-27T07:52:39.476Z,13.13
2018-09-27T07:56:43.702Z,13.10
2018-09-27T08:00:47.854Z,15.30
2018-09-27T08:04:51.979Z,12.70
2018-09-27T08:08:56.143Z,12.90
2018-09-27T08:13:00.182Z,11.47
2018-09-27T08:17:04.356Z,14.73
2018-09-27T08:21:08.546Z,14.10
2018-09-27T08:25:12.523Z,12.03
2018-09-27T08:29:16.937Z,10.00
2018-09-27T08:33:20.982Z,12.17
2018-09-27T08:37:25.035Z,13.73
2018-09-27T08:41:29.475Z,12.27
2018-09-27T08:45:33.695Z,10.53
2018-09-27T08:49:37.712Z,10.13
2018-09-27T08:53:41.888Z,11.50
2018-09-27T08:57:46.128Z,9.93
2018-09-27T09:01:50.413Z,11.70
2018-09-27T09:05:54.512Z,11.00
2018-09-27T09:09:58.591Z,10.50
2018-09-27T09:14:02.672Z,11.20
2018-09-27T09:18:06.831Z,8.43
2018-09-27T09:22:10.938Z,10.83
2018-09-27T09:26:15.171Z,11.33
2018-09-27T09:30:19.438Z,11.33
2018-09-27T09:34:23.656Z,12.17
2018-09-27T09:38:28.005Z,15.93
2018-09-27T09:42:32.106Z,11.13
2018-09-27T09:46:36.156Z,12.23
2018-09-27T09:50:40.269Z,11.00
2018-09-27T09:54:44.519Z,10.83
2018-09-27T09:58:48.817Z,11.67
2018-09-27T10:02:52.877Z,9.37
2018-09-27T10:06:56.945Z,8.70
2018-09-27T10:11:01.335Z,8.50
2018-09-27T10:15:05.508Z,14.63
2018-09-27T10:19:09.578Z,8.47
2018-09-27T10:23:14.475Z,10.27
2018-09-27T10:27:18.782Z,9.40
2018-09-27T10:31:22.824Z,9.10
2018-09-27T10:35:27.726Z,9.67
2018-09-27T10:39:31.774Z,7.10
2018-09-27T10:43:35.858Z,9.40
2018-09-27T10:47:40.200Z,10.40
2018-09-27T10:51:44.380Z,8.87
2018-09-27T10:55:48.582Z,10.17
2018-09-27T10:59:52.614Z,8.97
2018-09-27T11:03:56.793Z,11.53
2018-09-27T11:08:00.999Z,11.80
2018-09-27T11:12:05.100Z,11.03
2018-09-27T11:16:09.304Z,9.47
2018-09-27T11:20:13.971Z,9.47
2018-09-27T11:24:18.451Z,12.40
2018-09-27T11:28:22.593Z,12.90
2018-09-27T11:32:30.955Z,10.53
2018-09-27T11:36:35.107Z,11.70
2018-09-27T11:40:39.148Z,16.73
2018-09-27T11:44:44.468Z,11.90
2018-09-27T11:48:49.103Z,12.47
2018-09-27T11:52:53.349Z,10.67
2018-09-27T11:56:57.435Z,11.57
2018-09-27T12:01:01.599Z,11.03
2018-09-27T12:05:05.779Z,12.43
2018-09-27T12:09:11.664Z,11.90
2018-09-27T12:13:15.915Z,9.20
2018-09-27T12:17:20.341Z,11.40
2018-09-27T12:21:24.448Z,9.90
2018-09-27T12:25:28.526Z,8.53
2018-09-27T12:29:32.656Z,13.37
2018-09-27T12:33:36.804Z,10.57
2018-09-27T12:37:40.905Z,11.07
2018-09-27T12:41:46.816Z,11.47
2018-09-27T12:45:51.101Z,10.13
2018-09-27T12:49:55.151Z,10.27
2018-09-27T12:53:59.204Z,10.40
2018-09-27T12:58:03.262Z,11.83
2018-09-27T13:02:07.727Z,11.30
2018-09-27T13:06:12.347Z,13.00
2018-09-27T13:10:16.661Z,11.40
2018-09-27T13:14:20.823Z,14.77
2018-09-27T13:18:24.865Z,11.37
2018-09-27T13:22:29.058Z,14.47
2018-09-27T13:26:33.393Z,11.97
2018-09-27T13:30:37.410Z,10.67
2018-09-27T13:34:41.561Z,11.47
2018-09-27T13:38:46.285Z,13.17
2018-09-27T13:42:50.573Z,14.30
2018-09-27T13:46:54.707Z,12.00
2018-09-27T13:50:58.842Z,13.67
2018-09-27T13:55:02.999Z,12.43
2018-09-27T13:59:07.181Z,11.67
2018-09-27T14:03:11.381Z,14.63
2018-09-27T14:07:15.965Z,13.10
2018-09-27T16:30:08.400Z,17.33
2018-09-27T16:34:12.501Z,15.90
2018-09-27T16:38:16.957Z,16.93
2018-09-27T16:42:21.074Z,16.63
2018-09-27T16:46:26.120Z,15.47
2018-09-27T16:50:30.243Z,14.83
2018-09-27T16:54:34.428Z,14.90
2018-09-27T16:58:38.522Z,12.30
2018-09-27T17:02:44.454Z,21.20
2018-09-27T17:06:49.464Z,10.70
2018-09-27T17:10:55.010Z,13.13
2018-09-27T17:14:59.145Z,13.53
2018-09-27T17:19:03.411Z,16.67
2018-09-27T17:23:07.511Z,9.40
2018-09-27T17:27:11.691Z,10.00
2018-09-27T17:31:15.853Z,9.63
2018-09-27T17:35:20.346Z,20.00
2018-09-27T17:39:24.495Z,9.93
2018-09-27T17:43:28.670Z,9.00
2018-09-27T17:47:32.758Z,9.47
2018-09-27T17:51:36.896Z,9.47
2018-09-27T17:55:41.008Z,9.43
2018-09-27T17:59:45.717Z,8.33
2018-09-27T18:03:49.911Z,9.30
2018-09-27T18:07:54.063Z,11.30
2018-09-27T18:11:58.286Z,10.80
2018-09-27T18:16:03.332Z,7.07
2018-09-27T18:20:07.978Z,11.90
2018-09-27T18:24:12.686Z,10.50
2018-09-27T18:28:16.954Z,13.20
2018-09-27T18:32:22.120Z,20.40
2018-09-27T18:36:26.266Z,12.00
2018-09-27T18:40:30.467Z,10.80
2018-09-27T18:44:34.565Z,18.37
2018-09-27T18:48:38.834Z,10.90
2018-09-27T18:52:45.117Z,11.57
2018-09-27T18:56:50.078Z,18.87
2018-09-27T19:00:54.608Z,20.33
2018-09-27T19:04:58.798Z,23.33
2018-09-27T19:09:02.935Z,12.17
2018-09-27T19:13:07.018Z,19.53
2018-09-27T19:17:15.589Z,16.63
2018-09-27T19:21:22.814Z,20.30
2018-09-27T19:25:27.233Z,12.50
2018-09-27T19:29:31.441Z,14.70
2018-09-27T19:33:39.140Z,13.10
2018-09-27T19:37:52.127Z,14.20
2018-09-27T19:41:56.890Z,11.83
2018-09-27T19:46:01.013Z,15.93
2018-09-27T20:36:23.495Z,10.50
2018-09-27T20:40:27.611Z,12.83
2018-09-27T20:44:31.740Z,12.33
2018-09-27T20:48:35.870Z,12.07
2018-09-27T20:52:39.930Z,11.67
2018-09-27T20:56:44.150Z,12.87
2018-09-27T21:00:48.321Z,11.90
2018-09-27T21:04:52.399Z,11.23
2018-09-27T21:08:56.566Z,13.43
2018-09-27T21:13:00.944Z,15.10
2018-09-27T21:17:05.024Z,15.97
2018-09-27T21:21:09.094Z,12.67
2018-09-27T21:25:13.634Z,12.50
2018-09-27T21:29:18.271Z,13.83
2018-09-27T21:33:22.902Z,10.57
2018-09-27T21:37:27.002Z,12.90
2018-09-27T21:41:31.046Z,16.57
2018-09-27T21:45:35.131Z,12.60
2018-09-27T21:49:39.326Z,12.30
2018-09-27T21:53:43.591Z,12.93
2018-09-27T21:57:47.993Z,16.00
2018-09-27T22:01:52.143Z,15.43
2018-09-27T22:05:56.283Z,13.57
2018-09-27T22:10:00.343Z,16.13
2018-09-27T22:14:04.464Z,13.93
2018-09-27T22:18:08.615Z,12.20
2018-09-27T22:22:12.958Z,10.67
2018-09-27T22:26:17.189Z,18.53
2018-09-27T22:30:21.279Z,14.47
2018-09-27T22:34:25.408Z,15.50
2018-09-27T22:38:29.536Z,15.20
2018-09-27T22:42:33.595Z,13.50
2018-09-27T22:46:37.644Z,11.60
2018-09-27T22:50:43.026Z,14.33
2018-09-27T22:54:47.348Z,15.70
2018-09-27T22:58:51.480Z,14.47
2018-09-27T23:02:55.593Z,17.60
2018-09-27T23:06:59.684Z,17.83
2018-09-27T23:11:03.782Z,14.77
2018-09-27T23:15:08.150Z,14.47
2018-09-27T23:19:12.335Z,14.97
2018-09-27T23:23:16.499Z,16.53
2018-09-27T23:27:20.766Z,19.53
2018-09-27T23:31:25.044Z,16.63
2018-09-27T23:35:29.128Z,18.23
2018-09-27T23:39:33.212Z,17.60
2018-09-27T23:43:37.403Z,20.27
2018-09-27T23:47:41.549Z,16.00
2018-09-27T23:51:45.918Z,17.57
2018-09-27T23:55:50.074Z,15.97
2018-09-27T23:59:54.167Z,19.47
